Norfolk, Virginia
Traffic Map
Current Weather Conditions
Norfolk, Virginia
Overcast
Overcast
12°
Feels Like: 12°
Wind Chill: 12° Ceiling: 4500
Heat Index: 12° Visibility: 10mi
Dew Point: Wind: 10mph
Humidity: 64% Direction: 310° (NW)
Pressure: 29.86in Gusts: 23mph
Raw Report DataKORF 230851Z AUTO 31009G20KT 280V340 10SM OVC045 12/06 A2986 RMK AO2 SLP112 T01220056 56006 TSNO
Traffic Incident Summary
Active as of:
Severity:
Category:
InformationThere was an issue retrieving the traffic information for this location. Please try a different location or try again shortly.
Advertisements
Track Severe Weather on mobile